Time;durP1;ratioP1;P1;durP2;ratioP2;P2;SDS_P1;SDS_P2;PMS_P1;PMS_P2;Temp;Humidity;BMP_temperature;BMP_pressure;BME280_temperature;BME280_humidity;BME280_pressure;Samples;Min_cycle;Max_cycle;Signal;HPM_P1;HPM_P2
2022/06/26 00:01:35;;;;;;;9.27;6.37;;;25.60;57.80;;;;;;5009808;28;20076;-65
2022/06/26 00:04:01;;;;;;;11.98;8.57;;;25.50;58.00;;;;;;5006612;28;20386;-65
2022/06/26 00:06:27;;;;;;;18.27;8.17;;;25.50;57.90;;;;;;5008122;28;20056;-65
2022/06/26 00:08:52;;;;;;;9.48;6.47;;;25.50;57.80;;;;;;5009921;28;20389;-65
2022/06/26 00:11:18;;;;;;;8.93;6.10;;;25.50;57.80;;;;;;5011411;28;20033;-65
2022/06/26 00:13:44;;;;;;;10.30;5.90;;;25.50;57.80;;;;;;5013374;28;20025;-65
2022/06/26 00:16:10;;;;;;;6.73;5.53;;;25.50;57.90;;;;;;5014355;28;20083;-65
2022/06/26 00:18:36;;;;;;;7.97;5.83;;;25.40;57.90;;;;;;5014526;28;20299;-65
2022/06/26 00:21:02;;;;;;;7.83;4.73;;;25.40;57.90;;;;;;5013983;28;20108;-65
2022/06/26 00:23:27;;;;;;;8.18;5.20;;;25.40;57.90;;;;;;5014606;28;20026;-65
2022/06/26 00:25:54;;;;;;;8.70;5.03;;;25.40;57.90;;;;;;5013908;28;20038;-65
2022/06/26 00:28:19;;;;;;;9.70;5.20;;;25.40;57.90;;;;;;5014243;28;20033;-65
2022/06/26 00:30:45;;;;;;;7.63;5.50;;;25.30;58.40;;;;;;5014256;28;20030;-65
2022/06/26 00:33:11;;;;;;;6.57;4.45;;;25.30;58.40;;;;;;5014267;28;20029;-66
2022/06/26 00:35:37;;;;;;;6.37;5.07;;;25.20;58.30;;;;;;5013785;28;20034;-65
2022/06/26 00:38:03;;;;;;;7.87;4.97;;;25.20;58.40;;;;;;5014072;28;20490;-65
2022/06/26 00:40:28;;;;;;;9.37;5.27;;;25.20;58.70;;;;;;5014064;28;20038;-65
2022/06/26 00:42:54;;;;;;;9.13;5.70;;;25.20;58.60;;;;;;5014166;28;20033;-65
2022/06/26 00:45:20;;;;;;;9.83;5.07;;;25.20;58.20;;;;;;5013522;28;20032;-65
2022/06/26 00:47:46;;;;;;;5.97;4.50;;;25.20;58.40;;;;;;5013522;28;20272;-65
2022/06/26 00:50:11;;;;;;;6.67;4.33;;;25.20;58.30;;;;;;5014033;28;20030;-65
2022/06/26 00:52:39;;;;;;;8.87;4.30;;;25.10;58.10;;;;;;5013627;28;20113;-65
2022/06/26 00:55:06;;;;;;;7.22;5.07;;;25.10;58.10;;;;;;5012273;28;20033;-65
2022/06/26 00:57:33;;;;;;;7.53;4.90;;;25.00;58.40;;;;;;5013431;28;20116;-65
2022/06/26 00:59:59;;;;;;;6.85;4.32;;;25.00;58.60;;;;;;5013465;28;20037;-65
2022/06/26 01:02:25;;;;;;;11.67;4.83;;;24.90;58.60;;;;;;5013757;28;20029;-65
2022/06/26 01:04:50;;;;;;;6.83;4.10;;;24.90;58.50;;;;;;5013230;28;20086;-65
2022/06/26 01:07:16;;;;;;;7.13;3.90;;;24.80;58.60;;;;;;5012843;28;20149;-65
2022/06/26 01:09:42;;;;;;;5.17;4.00;;;24.70;58.70;;;;;;5013689;28;20033;-65
2022/06/26 01:12:08;;;;;;;7.97;3.90;;;24.60;58.80;;;;;;5013666;28;20018;-65
2022/06/26 01:14:34;;;;;;;5.82;3.90;;;24.60;58.90;;;;;;5013312;28;20026;-65
2022/06/26 01:17:00;;;;;;;6.23;3.67;;;24.60;58.90;;;;;;5013540;28;20018;-65
2022/06/26 01:19:26;;;;;;;5.78;4.28;;;24.50;59.00;;;;;;5013233;28;20025;-65
2022/06/26 01:21:52;;;;;;;6.25;4.88;;;24.50;59.10;;;;;;5013328;28;20076;-65
2022/06/26 01:24:18;;;;;;;6.07;4.03;;;24.50;58.90;;;;;;5013033;28;20025;-66
2022/06/26 01:26:44;;;;;;;6.30;4.53;;;24.40;59.00;;;;;;5012860;28;20038;-65
2022/06/26 01:29:10;;;;;;;5.20;3.75;;;24.30;59.10;;;;;;5012891;28;20034;-65
2022/06/26 01:31:36;;;;;;;5.05;4.35;;;24.30;59.40;;;;;;5013237;28;20037;-65
2022/06/26 01:34:04;;;;;;;5.93;4.10;;;24.30;59.30;;;;;;5013073;28;20042;-65
2022/06/26 01:36:30;;;;;;;8.88;4.50;;;24.30;59.30;;;;;;5012933;28;20048;-65
2022/06/26 01:38:56;;;;;;;5.37;4.43;;;24.30;59.30;;;;;;5011614;28;20565;-65
2022/06/26 01:41:22;;;;;;;5.33;4.40;;;24.30;59.00;;;;;;5012644;28;20044;-65
2022/06/26 01:43:48;;;;;;;8.53;4.60;;;24.30;58.90;;;;;;5012725;28;20029;-65
2022/06/26 01:46:13;;;;;;;8.33;4.53;;;24.40;58.90;;;;;;5012602;28;20498;-65
2022/06/26 01:48:39;;;;;;;7.83;4.20;;;24.40;58.70;;;;;;5012761;28;20030;-65
2022/06/26 01:51:06;;;;;;;8.97;4.67;;;24.40;58.70;;;;;;5011240;28;20030;-65
2022/06/26 01:53:32;;;;;;;5.47;4.55;;;24.40;58.70;;;;;;5012198;28;20026;-65
2022/06/26 01:55:58;;;;;;;7.70;4.50;;;24.50;58.60;;;;;;5012482;28;20487;-65
2022/06/26 01:58:24;;;;;;;6.53;4.20;;;24.50;58.50;;;;;;5011100;28;20075;-65
2022/06/26 02:00:50;;;;;;;6.25;4.65;;;24.50;58.40;;;;;;5012264;28;20109;-65
2022/06/26 02:03:17;;;;;;;7.03;4.70;;;24.60;58.30;;;;;;5012504;28;20052;-65
2022/06/26 02:05:43;;;;;;;8.05;4.93;;;24.50;58.20;;;;;;5012408;28;20037;-65
2022/06/26 02:08:09;;;;;;;6.07;5.03;;;24.50;58.40;;;;;;5012597;28;20022;-65
2022/06/26 02:16:14;;;;;;;6.47;5.43;;;24.10;59.20;;;;;;5012601;28;20049;-65
2022/06/26 02:18:41;;;;;;;7.65;4.82;;;24.10;59.30;;;;;;5011140;28;20029;-65
2022/06/26 02:21:09;;;;;;;8.82;5.18;;;24.20;59.10;;;;;;5012170;28;20030;-65
2022/06/26 02:23:37;;;;;;;5.07;4.57;;;24.20;59.10;;;;;;5011870;28;20108;-65
2022/06/26 02:26:04;;;;;;;6.18;4.78;;;24.20;59.00;;;;;;5049179;23;20049;-59
2022/06/26 02:28:30;;;;;;;6.18;4.43;;;24.30;59.20;;;;;;5011397;28;20030;-56
2022/06/26 02:30:56;;;;;;;5.60;4.83;;;24.30;59.10;;;;;;5012291;28;20033;-56
2022/06/26 02:33:22;;;;;;;6.32;5.00;;;24.20;59.00;;;;;;5010948;28;20096;-58
2022/06/26 02:35:48;;;;;;;12.73;5.17;;;24.20;59.00;;;;;;5011934;28;20482;-56
2022/06/26 02:38:15;;;;;;;8.47;4.97;;;24.20;58.90;;;;;;5011647;28;20104;-59
2022/06/26 02:40:41;;;;;;;;;;;24.20;59.00;;;;;;5011103;28;20037;-57
2022/06/26 02:43:07;;;;;;;6.13;4.82;;;24.10;59.00;;;;;;5010968;28;19913;-55
2022/06/26 02:45:32;;;;;;;4.70;3.80;;;24.10;58.90;;;;;;5011921;28;20041;-58
2022/06/26 02:47:58;;;;;;;10.43;5.10;;;24.20;59.00;;;;;;5011873;28;20100;-57
2022/06/26 02:50:24;;;;;;;7.00;4.87;;;24.20;59.00;;;;;;5011117;28;20041;-55
2022/06/26 02:52:50;;;;;;;7.03;5.30;;;24.20;59.00;;;;;;5011716;28;20026;-56
2022/06/26 02:55:15;;;;;;;6.93;5.60;;;24.10;59.10;;;;;;5011567;28;20034;-58
2022/06/26 02:57:41;;;;;;;5.87;4.90;;;24.00;59.20;;;;;;5011927;28;20028;-58
2022/06/26 03:00:10;;;;;;;11.13;5.17;;;24.00;59.30;;;;;;5011118;28;20065;-58
2022/06/26 03:02:36;;;;;;;10.93;5.78;;;24.00;59.40;;;;;;4997766;28;20104;-58
2022/06/26 03:05:02;;;;;;;9.93;5.20;;;24.10;59.60;;;;;;5010156;28;20121;-55
2022/06/26 03:07:28;;;;;;;9.67;5.83;;;24.10;59.40;;;;;;5011616;28;20037;-57
2022/06/26 03:09:53;;;;;;;15.93;7.10;;;24.10;59.20;;;;;;5011948;28;20257;-58
2022/06/26 03:12:19;;;;;;;9.80;5.47;;;24.10;59.00;;;;;;5008817;28;20172;-57
2022/06/26 03:14:45;;;;;;;12.77;5.97;;;24.10;59.00;;;;;;5008178;28;20030;-57
2022/06/26 03:17:11;;;;;;;11.83;5.97;;;24.10;59.10;;;;;;5011626;28;20066;-57
2022/06/26 03:19:36;;;;;;;8.30;6.87;;;24.10;59.30;;;;;;5011708;28;20036;-56
2022/06/26 03:22:02;;;;;;;6.47;5.60;;;24.00;59.90;;;;;;5011327;28;20037;-57
2022/06/26 03:24:28;;;;;;;9.63;6.60;;;24.00;59.50;;;;;;5011254;28;20026;-55
2022/06/26 03:26:54;;;;;;;9.33;5.70;;;24.00;59.60;;;;;;5011763;28;20120;-53
2022/06/26 03:29:20;;;;;;;9.77;6.20;;;24.00;59.70;;;;;;5011623;28;20479;-56
2022/06/26 03:31:45;;;;;;;10.60;6.10;;;24.10;59.70;;;;;;5011237;28;20581;-54
2022/06/26 03:34:12;;;;;;;8.97;7.13;;;24.10;60.00;;;;;;5011631;28;20105;-57
2022/06/26 03:36:37;;;;;;;11.18;7.22;;;24.10;60.70;;;;;;5003758;28;20081;-57
2022/06/26 03:39:04;;;;;;;8.43;7.50;;;24.10;60.80;;;;;;5008507;28;20030;-58
2022/06/26 03:41:30;;;;;;;7.57;6.88;;;24.00;60.90;;;;;;5011371;28;20445;-56
2022/06/26 03:43:55;;;;;;;8.17;6.47;;;24.00;60.90;;;;;;5011555;28;20113;-55
2022/06/26 03:46:22;;;;;;;8.67;7.53;;;23.90;61.10;;;;;;5014588;28;20025;-56
2022/06/26 03:48:48;;;;;;;15.40;6.83;;;23.80;61.20;;;;;;5015017;28;20376;-57
2022/06/26 03:51:14;;;;;;;10.77;7.40;;;23.60;61.50;;;;;;5015174;28;20291;-58
2022/06/26 03:53:39;;;;;;;8.07;7.27;;;23.50;61.80;;;;;;5015157;28;20053;-57
2022/06/26 03:56:05;;;;;;;10.83;6.83;;;23.60;62.50;;;;;;5015115;28;20022;-58
2022/06/26 03:58:31;;;;;;;11.33;8.23;;;23.60;61.80;;;;;;5015051;28;20022;-55
2022/06/26 04:00:57;;;;;;;16.23;7.85;;;23.60;61.90;;;;;;5014633;28;20583;-56
2022/06/26 04:03:23;;;;;;;10.88;8.10;;;23.50;61.80;;;;;;5015090;28;20299;-55
2022/06/26 04:05:49;;;;;;;13.10;8.03;;;23.60;62.00;;;;;;5014773;28;20057;-53
2022/06/26 04:08:15;;;;;;;12.57;8.02;;;23.50;62.20;;;;;;5014810;28;20026;-56
2022/06/26 04:10:42;;;;;;;14.00;7.63;;;23.40;62.40;;;;;;5014795;28;20028;-55
2022/06/26 04:13:10;;;;;;;11.57;8.05;;;23.40;62.30;;;;;;5014900;28;20104;-57
2022/06/26 04:15:37;;;;;;;12.48;8.10;;;23.50;62.40;;;;;;5012809;28;20030;-57
2022/06/26 04:18:04;;;;;;;9.20;7.97;;;23.50;62.20;;;;;;5013778;28;20582;-57
2022/06/26 04:20:30;;;;;;;13.00;8.85;;;23.60;62.20;;;;;;5014727;28;20105;-57
2022/06/26 04:23:02;;;;;;;11.02;8.60;;;23.60;62.30;;;;;;5014678;28;20072;-58
2022/06/26 04:25:29;;;;;;;13.88;7.97;;;23.70;62.30;;;;;;5014171;28;20030;-55
2022/06/26 04:27:55;;;;;;;13.43;9.05;;;23.70;62.40;;;;;;5014350;28;20112;-57
2022/06/26 04:30:21;;;;;;;10.27;8.35;;;23.70;62.30;;;;;;5014294;28;20041;-58
2022/06/26 04:32:46;;;;;;;17.17;8.77;;;23.80;62.40;;;;;;5012955;28;20390;-58
2022/06/26 04:35:12;;;;;;;19.53;10.50;;;23.90;62.20;;;;;;5014339;28;20030;-57
2022/06/26 04:37:38;;;;;;;12.47;8.27;;;23.90;62.10;;;;;;5014354;28;20029;-58
2022/06/26 04:40:09;;;;;;;13.23;8.57;;;23.90;61.90;;;;;;5013232;28;20184;-55
2022/06/26 04:42:35;;;;;;;10.23;8.32;;;23.80;62.10;;;;;;5013066;28;20034;-54
2022/06/26 04:45:01;;;;;;;14.87;8.17;;;23.80;62.30;;;;;;5014138;28;20061;-53
2022/06/26 04:47:27;;;;;;;10.57;8.97;;;23.80;62.30;;;;;;5014008;28;20022;-55
2022/06/26 04:49:53;;;;;;;14.83;8.47;;;23.80;63.20;;;;;;5014173;28;20263;-58
2022/06/26 04:52:18;;;;;;;11.80;8.80;;;23.80;62.40;;;;;;5014126;28;20045;-57
2022/06/26 04:54:45;;;;;;;13.10;8.60;;;23.80;62.70;;;;;;5014050;28;20022;-59
2022/06/26 04:57:11;;;;;;;17.10;9.40;;;23.80;63.20;;;;;;5013161;28;20022;-56
2022/06/26 04:59:37;;;;;;;16.80;10.23;;;23.70;63.60;;;;;;5013939;28;20428;-58
2022/06/26 05:02:05;;;;;;;14.80;9.13;;;23.70;64.00;;;;;;4997762;28;20105;-58
2022/06/26 05:04:30;;;;;;;17.23;8.70;;;23.80;64.20;;;;;;4994133;28;20486;-55
2022/06/26 05:06:56;;;;;;;13.20;9.67;;;23.80;64.00;;;;;;4994251;28;20034;-55
2022/06/26 05:09:23;;;;;;;15.50;9.13;;;23.90;63.90;;;;;;4994040;28;20096;-59
2022/06/26 05:11:50;;;;;;;15.00;9.80;;;23.90;63.60;;;;;;4994162;28;20026;-54
2022/06/26 05:14:17;;;;;;;15.85;8.57;;;23.90;64.50;;;;;;4994089;28;20026;-56
2022/06/26 05:16:42;;;;;;;;;;;23.90;64.00;;;;;;4994348;28;20088;-58
2022/06/26 05:19:08;;;;;;;16.00;9.15;;;24.00;64.10;;;;;;4993650;28;20449;-56
2022/06/26 05:21:34;;;;;;;16.67;9.20;;;24.00;63.60;;;;;;4993647;28;20447;-56
2022/06/26 05:24:00;;;;;;;11.43;8.10;;;24.10;63.70;;;;;;4996549;28;20113;-58
2022/06/26 05:26:25;;;;;;;13.70;8.40;;;24.20;63.00;;;;;;4998582;28;20189;-58
2022/06/26 05:28:51;;;;;;;12.07;7.77;;;24.30;62.80;;;;;;4996109;28;20118;-57
2022/06/26 05:31:17;;;;;;;13.50;7.73;;;24.30;62.50;;;;;;5004003;28;20022;-58
2022/06/26 05:33:43;;;;;;;14.33;7.63;;;24.30;62.30;;;;;;5002284;28;20033;-57
2022/06/26 05:36:09;;;;;;;9.17;7.20;;;24.30;62.70;;;;;;5003129;28;20037;-59
2022/06/26 05:38:36;;;;;;;15.73;7.60;;;24.40;62.90;;;;;;4993817;28;20056;-58
2022/06/26 05:41:02;;;;;;;12.48;8.02;;;24.60;62.40;;;;;;5004526;28;20033;-58
2022/06/26 05:43:27;;;;;;;14.73;8.73;;;24.70;61.80;;;;;;5012455;28;20030;-58
2022/06/26 05:45:53;;;;;;;20.33;8.33;;;24.90;61.20;;;;;;5012135;28;20065;-59
2022/06/26 05:48:20;;;;;;;13.73;8.40;;;25.00;60.90;;;;;;4998440;28;20105;-57
2022/06/26 05:50:46;;;;;;;10.23;7.43;;;25.10;61.00;;;;;;4992202;28;20018;-55
2022/06/26 05:53:12;;;;;;;15.80;8.18;;;25.20;60.00;;;;;;4993342;28;20027;-58
2022/06/26 05:55:38;;;;;;;9.60;7.63;;;25.20;60.00;;;;;;4993080;28;20105;-58
2022/06/26 05:58:07;;;;;;;11.65;8.68;;;25.20;59.50;;;;;;4992995;28;20026;-55
2022/06/26 06:00:34;;;;;;;13.27;8.45;;;25.10;59.60;;;;;;4995582;28;20065;-56
2022/06/26 06:03:00;;;;;;;11.02;7.85;;;25.10;60.00;;;;;;4993177;28;20058;-55
2022/06/26 06:05:26;;;;;;;10.43;9.03;;;25.10;60.40;;;;;;4992838;28;20062;-57
2022/06/26 06:07:55;;;;;;;15.13;9.63;;;25.10;60.90;;;;;;4992259;28;20061;-58
2022/06/26 06:10:23;;;;;;;13.55;9.07;;;25.20;61.30;;;;;;4992906;28;20509;-55
2022/06/26 06:12:50;;;;;;;13.43;8.63;;;25.30;61.00;;;;;;4993008;28;20033;-57
2022/06/26 06:15:17;;;;;;;16.17;8.38;;;25.40;60.90;;;;;;4992908;28;20015;-54
2022/06/26 06:17:44;;;;;;;16.73;8.75;;;25.50;60.10;;;;;;4992860;28;20026;-55
2022/06/26 06:20:13;;;;;;;;;;;25.50;60.20;;;;;;4993352;28;20064;-58
2022/06/26 06:22:41;;;;;;;17.73;8.77;;;25.60;59.90;;;;;;4992813;28;19949;-54
2022/06/26 06:25:08;;;;;;;15.77;9.02;;;25.60;59.90;;;;;;4992468;28;20395;-56
2022/06/26 06:27:34;;;;;;;14.25;8.30;;;25.70;59.40;;;;;;4992604;28;20161;-54
2022/06/26 06:29:59;;;;;;;14.30;8.60;;;25.70;59.80;;;;;;4992802;28;20109;-58
2022/06/26 06:32:26;;;;;;;15.60;10.27;;;25.80;59.50;;;;;;4992718;28;20027;-55
2022/06/26 06:34:52;;;;;;;17.77;8.95;;;25.90;59.80;;;;;;4992632;28;20022;-55
2022/06/26 06:37:17;;;;;;;12.30;9.80;;;26.00;60.00;;;;;;4992497;28;20068;-54
2022/06/26 06:39:43;;;;;;;15.93;9.77;;;26.10;60.00;;;;;;4992554;28;20518;-58
2022/06/26 06:42:09;;;;;;;15.53;9.23;;;26.10;59.90;;;;;;4992589;28;20152;-58
2022/06/26 06:44:35;;;;;;;16.77;9.63;;;26.20;60.20;;;;;;4991141;28;20080;-57
2022/06/26 06:47:01;;;;;;;11.70;9.20;;;26.20;60.50;;;;;;4992695;28;20495;-57
2022/06/26 06:49:27;;;;;;;15.63;10.27;;;26.30;60.60;;;;;;4992515;28;20037;-58
2022/06/26 06:51:53;;;;;;;17.53;8.90;;;26.40;60.90;;;;;;4992369;28;20026;-56
2022/06/26 06:54:20;;;;;;;12.20;7.90;;;26.40;60.90;;;;;;4992427;28;20030;-57
2022/06/26 06:56:46;;;;;;;13.98;7.82;;;26.50;60.50;;;;;;4992316;28;20022;-54
2022/06/26 06:59:12;;;;;;;14.23;8.00;;;26.60;60.30;;;;;;4992273;28;20418;-57
2022/06/26 07:01:37;;;;;;;17.73;8.70;;;26.70;60.10;;;;;;4992491;28;20026;-56
2022/06/26 07:04:03;;;;;;;11.47;7.17;;;26.80;60.20;;;;;;4991118;28;20030;-54
2022/06/26 07:06:29;;;;;;;12.33;6.80;;;26.90;60.00;;;;;;4990771;28;20031;-56
2022/06/26 07:08:55;;;;;;;16.88;7.53;;;26.90;60.10;;;;;;4992089;28;20019;-56
2022/06/26 07:11:20;;;;;;;12.73;7.67;;;27.00;59.90;;;;;;4992221;28;20080;-57
2022/06/26 07:13:46;;;;;;;13.40;7.20;;;27.00;59.80;;;;;;4992296;28;20414;-54
2022/06/26 07:16:12;;;;;;;15.00;7.23;;;27.10;59.50;;;;;;4992248;28;20030;-57
2022/06/26 07:18:38;;;;;;;14.07;7.77;;;27.10;59.50;;;;;;4992021;28;20034;-57
2022/06/26 07:21:04;;;;;;;14.03;6.70;;;27.10;59.70;;;;;;4995428;28;20042;-57
2022/06/26 07:23:30;;;;;;;11.00;5.57;;;27.10;59.70;;;;;;4996027;28;20042;-57
2022/06/26 07:25:58;;;;;;;13.38;7.00;;;27.20;59.80;;;;;;4995862;28;20450;-56
2022/06/26 07:28:24;;;;;;;16.95;6.60;;;27.20;59.60;;;;;;4995843;28;20049;-57
2022/06/26 07:30:50;;;;;;;15.83;6.37;;;27.30;59.80;;;;;;4996146;28;20105;-57
2022/06/26 07:35:59;;;;;;;12.27;6.97;;;27.30;59.10;;;;;;4995762;28;20037;-56
2022/06/26 07:38:25;;;;;;;12.90;6.77;;;27.50;58.90;;;;;;4995683;28;20093;-56
2022/06/26 07:40:52;;;;;;;13.53;6.70;;;27.50;58.50;;;;;;4994648;28;20018;-55
2022/06/26 07:43:17;;;;;;;;;;;27.60;58.70;;;;;;4996207;28;20488;-55
2022/06/26 07:45:43;;;;;;;14.40;7.03;;;27.70;58.70;;;;;;4995623;28;19948;-54
2022/06/26 07:48:09;;;;;;;14.53;8.20;;;27.70;58.50;;;;;;4995527;28;20253;-57
2022/06/26 07:50:35;;;;;;;15.40;7.20;;;27.80;58.40;;;;;;4995525;28;20114;-55
2022/06/26 07:53:01;;;;;;;14.20;6.90;;;;;;;;;;4995654;28;20372;-59
2022/06/26 07:55:27;;;;;;;13.57;7.20;;;;;;;;;;4995787;28;20289;-60
2022/06/26 07:57:53;;;;;;;18.08;8.45;;;;;;;;;;4995281;28;20034;-59
2022/06/26 08:00:19;;;;;;;16.77;8.02;;;;;;;;;;4995522;28;20034;-59
2022/06/26 08:02:45;;;;;;;26.67;8.38;;;;;;;;;;4995370;28;20033;-59
2022/06/26 08:05:11;;;;;;;17.58;7.15;;;28.40;56.60;;;;;;4993689;28;20033;-63
2022/06/26 08:07:37;;;;;;;16.23;6.55;;;28.40;57.50;;;;;;4995014;28;20556;-63
2022/06/26 08:10:03;;;;;;;14.07;6.90;;;28.30;57.70;;;;;;4994080;28;20136;-61
2022/06/26 08:12:29;;;;;;;11.02;7.13;;;28.20;57.50;;;;;;4995281;28;20750;-62
2022/06/26 08:14:55;;;;;;;13.73;6.97;;;28.20;57.90;;;;;;4995167;28;20025;-62
2022/06/26 08:17:20;;;;;;;19.50;7.70;;;28.20;58.20;;;;;;4993786;28;20025;-62
2022/06/26 08:19:47;;;;;;;15.37;7.20;;;28.30;58.00;;;;;;4993765;28;20023;-62
2022/06/26 08:22:13;;;;;;;13.20;6.35;;;28.40;57.80;;;;;;4995092;28;20418;-62
2022/06/26 08:24:41;;;;;;;15.85;6.13;;;28.50;57.90;;;;;;4994994;28;20402;-62
2022/06/26 08:27:08;;;;;;;22.40;7.45;;;28.60;57.70;;;;;;5033957;23;20041;-62
2022/06/26 08:29:33;;;;;;;19.70;5.47;;;28.60;58.40;;;;;;5014635;28;20022;-62
2022/06/26 08:31:59;;;;;;;18.43;6.80;;;28.60;57.20;;;;;;5013608;28;20036;-62
2022/06/26 08:34:25;;;;;;;14.80;5.90;;;28.70;56.80;;;;;;5014397;28;20022;-62
2022/06/26 08:36:52;;;;;;;15.00;6.10;;;28.70;57.20;;;;;;5014441;28;20057;-61
2022/06/26 08:39:18;;;;;;;10.38;5.57;;;28.80;57.30;;;;;;5012935;28;20250;-62
2022/06/26 08:41:47;;;;;;;9.97;4.70;;;28.90;57.20;;;;;;5014378;28;20247;-61
2022/06/26 08:44:14;;;;;;;10.50;4.25;;;28.90;57.00;;;;;;5014419;28;20034;-62
2022/06/26 08:46:42;;;;;;;13.18;5.13;;;28.90;56.10;;;;;;5014164;28;20033;-62
2022/06/26 08:49:11;;;;;;;10.52;4.60;;;29.00;55.60;;;;;;5013833;28;20030;-62
2022/06/26 08:51:39;;;;;;;15.63;5.88;;;29.00;55.50;;;;;;5014325;28;20101;-62
2022/06/26 08:54:06;;;;;;;15.50;6.18;;;29.10;55.70;;;;;;5014089;28;20501;-62
2022/06/26 08:56:33;;;;;;;15.68;6.60;;;29.20;56.20;;;;;;5014059;28;20491;-61
2022/06/26 08:59:00;;;;;;;14.68;7.65;;;29.30;56.20;;;;;;5013850;28;20037;-61
2022/06/26 09:01:25;;;;;;;11.75;6.15;;;29.30;55.90;;;;;;5013847;28;20482;-61
2022/06/26 09:03:51;;;;;;;11.15;5.57;;;29.30;56.20;;;;;;5014033;28;20032;-62
2022/06/26 09:06:17;;;;;;;12.50;4.60;;;29.30;56.00;;;;;;5013747;28;20483;-62
2022/06/26 09:08:44;;;;;;;14.40;5.40;;;29.40;55.50;;;;;;5013925;28;20018;-62
2022/06/26 09:11:11;;;;;;;12.48;4.65;;;29.40;55.20;;;;;;5013787;28;20029;-62
2022/06/26 09:13:41;;;;;;;13.82;4.40;;;29.50;55.10;;;;;;5012555;28;20041;-62
2022/06/26 09:16:07;;;;;;;12.98;5.28;;;29.60;55.10;;;;;;5013481;28;20021;-61
2022/06/26 09:18:35;;;;;;;14.80;5.15;;;29.60;54.70;;;;;;5012167;28;20117;-62
2022/06/26 09:21:04;;;;;;;15.75;6.65;;;29.70;54.90;;;;;;5012297;28;20034;-60
2022/06/26 09:23:31;;;;;;;18.55;4.82;;;29.80;54.30;;;;;;5013700;28;20044;-62
2022/06/26 09:25:57;;;;;;;14.10;5.63;;;29.80;54.50;;;;;;5013299;28;20037;-62
2022/06/26 09:28:24;;;;;;;15.45;4.13;;;29.80;54.50;;;;;;5013352;28;20034;-62
2022/06/26 09:30:54;;;;;;;;;;;29.80;54.50;;;;;;5013759;28;20022;-62
2022/06/26 09:33:28;;;;;;;16.63;6.07;;;29.80;54.40;;;;;;5013327;28;20328;-62
2022/06/26 09:35:56;;;;;;;14.52;5.07;;;29.80;55.00;;;;;;5012716;28;20091;-61
2022/06/26 09:38:32;;;;;;;12.30;5.60;;;29.90;54.80;;;;;;5009611;28;20049;-62
2022/06/26 09:41:05;;;;;;;9.73;5.15;;;29.90;54.30;;;;;;5009524;28;20844;-61
2022/06/26 09:43:37;;;;;;;11.43;3.90;;;29.90;54.50;;;;;;5009494;28;20418;-62
2022/06/26 09:46:08;;;;;;;7.35;3.47;;;30.00;54.60;;;;;;5013049;28;20038;-61
2022/06/26 09:48:37;;;;;;;13.18;5.78;;;30.20;53.90;;;;;;5012986;28;20056;-61
2022/06/26 09:51:04;;;;;;;;;;;30.20;54.00;;;;;;5013509;28;20024;-61
2022/06/26 09:53:30;;;;;;;10.65;3.67;;;30.30;53.60;;;;;;4995115;28;19964;-61
2022/06/26 09:55:57;;;;;;;;;;;30.30;53.80;;;;;;4992154;28;20403;-61
2022/06/26 09:58:24;;;;;;;10.83;3.40;;;30.40;53.20;;;;;;4992967;28;19916;-61
2022/06/26 10:06:28;;;;;;;8.93;4.22;;;30.40;52.30;;;;;;4992905;28;20117;-62
2022/06/26 10:09:06;;;;;;;10.15;4.60;;;30.50;52.20;;;;;;4993174;28;20032;-61
2022/06/26 10:11:34;;;;;;;10.18;3.38;;;30.50;52.10;;;;;;4991887;28;20026;-62
2022/06/26 10:14:10;;;;;;;9.32;3.17;;;30.50;51.70;;;;;;4993047;28;20055;-62
2022/06/26 10:17:04;;;;;;;9.40;3.28;;;30.60;51.60;;;;;;4992895;28;20027;-62
2022/06/26 10:19:56;;;;;;;6.00;3.25;;;30.80;52.60;;;;;;5000631;28;20033;-62
2022/06/26 10:22:22;;;;;;;8.25;2.67;;;30.90;51.90;;;;;;5004868;28;20160;-62
2022/06/26 10:24:56;;;;;;;12.47;3.20;;;30.90;50.10;;;;;;5010209;28;20140;-63
2022/06/26 10:27:27;;;;;;;6.60;3.28;;;31.10;49.00;;;;;;5011838;28;20025;-63
2022/06/26 10:30:10;;;;;;;9.32;3.03;;;31.10;49.80;;;;;;5011991;28;20096;-63
2022/06/26 10:32:36;;;;;;;7.80;3.45;;;31.10;50.00;;;;;;5012243;28;20414;-62
2022/06/26 10:35:04;;;;;;;6.05;3.30;;;31.20;50.50;;;;;;5011997;28;20398;-63
2022/06/26 10:37:42;;;;;;;10.68;3.00;;;31.30;50.60;;;;;;5010784;28;20104;-63
2022/06/26 10:43:08;;;;;;;8.85;3.65;;;31.40;50.10;;;;;;5010216;28;20431;-63
2022/06/26 10:45:39;;;;;;;12.73;3.55;;;31.50;49.90;;;;;;5005642;28;20037;-62
2022/06/26 10:48:23;;;;;;;8.95;2.95;;;31.50;49.80;;;;;;5011105;28;20022;-63
2022/06/26 10:51:03;;;;;;;6.95;2.80;;;31.60;49.00;;;;;;5012154;28;20323;-63
2022/06/26 10:53:30;;;;;;;10.02;2.78;;;31.60;49.20;;;;;;5011623;28;20390;-63
2022/06/26 10:56:03;;;;;;;10.13;3.00;;;31.70;48.50;;;;;;5011361;28;20025;-63
2022/06/26 10:58:32;;;;;;;8.32;2.92;;;31.70;47.70;;;;;;5010873;28;20468;-62
2022/06/26 11:01:04;;;;;;;10.13;3.55;;;31.60;47.20;;;;;;5011953;28;20033;-62
2022/06/26 11:03:30;;;;;;;6.28;2.00;;;31.60;47.70;;;;;;5011024;28;20030;-63
2022/06/26 11:06:00;;;;;;;7.30;1.92;;;31.60;44.80;;;;;;5011738;28;20107;-63
2022/06/26 11:08:31;;;;;;;7.28;2.78;;;31.60;43.00;;;;;;5011722;28;20026;-63
2022/06/26 11:11:20;;;;;;;7.00;2.28;;;31.80;45.90;;;;;;5011908;28;20079;-62
2022/06/26 11:13:54;;;;;;;6.28;2.10;;;31.90;44.80;;;;;;5011956;28;20022;-63
2022/06/26 11:16:29;;;;;;;7.38;2.97;;;32.00;44.90;;;;;;5011769;28;20079;-63
2022/06/26 11:18:55;;;;;;;7.68;2.38;;;32.10;44.00;;;;;;5010324;28;20065;-63
2022/06/26 11:21:21;;;;;;;13.85;3.10;;;32.20;43.70;;;;;;5011790;28;20018;-63
2022/06/26 11:23:51;;;;;;;11.70;2.90;;;32.20;45.00;;;;;;5011805;28;20037;-63
2022/06/26 11:26:22;;;;;;;6.90;2.70;;;32.30;44.90;;;;;;5011505;28;20100;-63
2022/06/26 11:29:14;;;;;;;5.10;2.30;;;32.30;45.00;;;;;;5011617;28;20025;-62
2022/06/26 11:31:46;;;;;;;6.28;2.25;;;32.40;42.60;;;;;;5009731;28;20537;-63
2022/06/26 11:34:14;;;;;;;9.23;2.92;;;32.40;44.30;;;;;;5011709;28;20018;-62
2022/06/26 11:36:56;;;;;;;6.68;3.22;;;32.50;44.10;;;;;;5011634;28;20053;-62
2022/06/26 11:39:24;;;;;;;11.20;2.80;;;32.60;43.80;;;;;;5011429;28;20391;-63
2022/06/26 11:41:50;;;;;;;6.90;2.40;;;32.70;44.00;;;;;;5011610;28;20248;-63
2022/06/26 11:44:16;;;;;;;15.43;2.50;;;32.80;43.50;;;;;;5011443;28;20079;-62
2022/06/26 11:46:42;;;;;;;10.52;2.63;;;32.80;42.90;;;;;;5011469;28;20101;-63
2022/06/26 11:49:13;;;;;;;8.35;2.78;;;32.90;42.90;;;;;;5011421;28;20115;-63
2022/06/26 11:51:39;;;;;;;8.80;2.55;;;33.00;42.70;;;;;;5011568;28;20026;-63
2022/06/26 11:54:05;;;;;;;12.05;3.03;;;33.10;42.20;;;;;;5011564;28;20030;-63
2022/06/26 11:56:31;;;;;;;8.90;2.63;;;33.30;41.30;;;;;;5011341;28;20509;-63
2022/06/26 11:58:58;;;;;;;8.40;2.75;;;33.40;41.90;;;;;;5011297;28;20482;-63
2022/06/26 12:01:35;;;;;;;14.02;3.35;;;33.40;42.80;;;;;;5011463;28;20026;-63
2022/06/26 12:04:03;;;;;;;8.85;2.33;;;33.60;41.70;;;;;;5011370;28;20509;-62
2022/06/26 12:06:34;;;;;;;7.30;2.10;;;33.70;40.70;;;;;;5012117;28;20030;-63
2022/06/26 12:09:02;;;;;;;6.43;2.10;;;33.70;41.00;;;;;;5014728;28;20026;-63
2022/06/26 12:11:28;;;;;;;10.98;3.22;;;33.80;40.80;;;;;;5014917;28;20103;-62
2022/06/26 12:13:55;;;;;;;11.30;2.83;;;34.00;40.70;;;;;;5015120;28;20546;-63
2022/06/26 12:16:21;;;;;;;7.63;2.15;;;34.00;41.00;;;;;;5013258;28;20394;-62
2022/06/26 12:18:49;;;;;;;9.00;3.28;;;34.00;40.40;;;;;;5014277;28;20029;-62
2022/06/26 12:21:20;;;;;;;7.13;2.80;;;34.10;40.70;;;;;;5013653;28;20351;-63
2022/06/26 12:23:48;;;;;;;8.50;2.97;;;34.10;41.00;;;;;;5013283;28;20038;-63
2022/06/26 12:26:18;;;;;;;7.20;2.78;;;34.10;40.50;;;;;;5008721;28;20049;-63
2022/06/26 12:29:00;;;;;;;9.38;3.13;;;34.30;40.20;;;;;;5006734;28;20383;-63
2022/06/26 12:31:26;;;;;;;5.85;2.20;;;34.30;41.10;;;;;;5004420;28;20022;-63
2022/06/26 12:33:53;;;;;;;8.85;3.13;;;34.40;40.10;;;;;;5005374;28;20504;-62
2022/06/26 12:36:19;;;;;;;8.57;2.80;;;34.40;39.70;;;;;;4994723;28;20482;-62
2022/06/26 12:38:46;;;;;;;7.35;2.40;;;34.50;39.90;;;;;;4994654;28;20101;-63
2022/06/26 12:41:19;;;;;;;13.65;3.67;;;34.70;39.50;;;;;;4994821;28;20110;-61
2022/06/26 12:43:50;;;;;;;9.95;2.95;;;34.70;39.30;;;;;;5012436;28;20066;-63
2022/06/26 12:46:16;;;;;;;10.20;2.58;;;34.80;38.40;;;;;;5014121;28;20030;-62
2022/06/26 12:48:42;;;;;;;8.93;2.25;;;34.90;38.30;;;;;;5013723;28;20026;-62
2022/06/26 12:51:08;;;;;;;6.70;2.15;;;34.90;38.70;;;;;;5012875;28;20478;-62
2022/06/26 12:53:34;;;;;;;7.50;2.60;;;35.00;39.10;;;;;;5013850;28;20052;-62
2022/06/26 12:56:00;;;;;;;13.60;3.03;;;35.00;39.30;;;;;;5014151;28;20549;-62
2022/06/26 12:58:26;;;;;;;10.07;2.38;;;35.10;38.60;;;;;;5013641;28;20034;-62
2022/06/26 13:00:52;;;;;;;;;;;35.20;38.80;;;;;;5014146;28;20022;-62
2022/06/26 13:03:18;;;;;;;7.53;2.60;;;35.20;38.70;;;;;;5013513;28;19909;-61